createdAt,value
2022-09-06T07:14:30.014Z,208.13
2022-09-06T07:15:30.038Z,202.50
2022-09-06T07:16:30.163Z,191.25
2022-09-06T07:39:13.924Z,742.50
2022-09-06T07:40:14.035Z,725.63
2022-09-06T07:42:53.601Z,663.75
2022-09-06T07:43:53.617Z,838.13
2022-09-06T07:44:53.703Z,652.50
2022-09-06T07:45:53.723Z,838.13
2022-09-06T07:46:53.955Z,866.25
2022-09-06T07:48:53.876Z,883.13
2022-09-06T07:50:58.858Z,894.38
2022-09-06T07:51:54.034Z,905.63
2022-09-06T07:53:12.768Z,905.63
2022-09-06T07:54:06.895Z,922.50
2022-09-06T07:54:54.222Z,905.63
2022-09-06T07:55:54.277Z,916.88
2022-09-06T07:56:54.301Z,922.50
2022-09-06T07:57:54.355Z,928.13
2022-09-06T07:58:54.411Z,933.75
2022-09-06T07:59:54.460Z,933.75
2022-09-06T08:00:54.604Z,950.63
2022-09-06T08:01:54.644Z,950.63
2022-09-06T08:02:54.667Z,961.88
2022-09-06T08:03:54.746Z,945.00
2022-09-06T08:04:54.753Z,956.25
2022-09-06T08:06:10.542Z,933.75
2022-09-06T08:09:55.120Z,973.13
2022-09-06T08:10:55.104Z,916.88
2022-09-06T08:11:55.145Z,708.75
2022-09-06T08:12:55.226Z,855.00
2022-09-06T08:13:55.270Z,973.13
2022-09-06T08:14:55.951Z,956.25
2022-09-06T08:15:55.422Z,1001.25
2022-09-06T08:16:55.424Z,961.88
2022-09-06T08:17:55.452Z,669.38
2022-09-06T08:18:55.541Z,1023.75
2022-09-06T08:19:55.631Z,1023.75
2022-09-06T08:20:55.642Z,753.75
2022-09-06T08:21:55.690Z,1040.63
2022-09-06T08:22:55.754Z,1046.25
2022-09-06T08:23:55.902Z,1057.50
2022-09-06T08:24:55.883Z,1057.50
2022-09-06T08:25:56.032Z,1074.38
2022-09-06T08:26:55.947Z,1057.50
2022-09-06T08:27:56.034Z,1068.75
2022-09-06T08:28:56.082Z,1085.63
2022-09-06T08:29:56.155Z,1068.75
2022-09-06T08:30:56.247Z,1091.25
2022-09-06T08:31:58.328Z,1102.50
2022-09-06T08:32:56.278Z,1119.38
2022-09-06T08:33:56.378Z,1091.25
2022-09-06T08:34:56.403Z,1119.38
2022-09-06T08:35:56.472Z,1125.00
2022-09-06T08:36:56.539Z,1130.63
2022-09-06T08:37:56.598Z,1136.25
2022-09-06T08:38:56.640Z,1141.88
2022-09-06T08:39:56.787Z,1147.50
2022-09-06T08:40:56.719Z,1147.50
2022-09-06T08:41:56.901Z,1158.75
2022-09-06T08:42:56.863Z,1158.75
2022-09-06T08:44:57.614Z,1170.00
2022-09-06T08:45:57.054Z,1175.63
2022-09-06T08:46:57.221Z,1181.25
2022-09-06T08:47:57.108Z,1186.88
2022-09-06T08:48:57.171Z,1198.13
2022-09-06T08:49:57.218Z,1209.38
2022-09-06T08:50:57.314Z,1209.38
2022-09-06T08:51:57.470Z,1215.00
2022-09-06T08:53:16.193Z,1220.63
2022-09-06T08:53:57.545Z,1226.25
2022-09-06T08:54:57.542Z,1237.50
2022-09-06T08:55:57.564Z,1226.25
2022-09-06T08:56:57.670Z,1130.63
2022-09-06T08:57:57.712Z,1175.63
2022-09-06T08:58:57.785Z,866.25
2022-09-06T08:59:57.830Z,1119.38
2022-09-06T09:00:57.951Z,1265.63
2022-09-06T09:01:57.988Z,1265.63
2022-09-06T09:02:57.997Z,1282.50
2022-09-06T09:03:58.074Z,1299.38
2022-09-06T09:04:58.062Z,1305.00
2022-09-06T09:05:58.121Z,1321.88
2022-09-06T09:06:58.209Z,1321.88
2022-09-06T09:07:58.237Z,1333.13
2022-09-06T09:08:58.294Z,1333.13
2022-09-06T09:09:58.357Z,1321.88
2022-09-06T09:10:58.461Z,1355.63
2022-09-06T09:11:58.469Z,1395.00
2022-09-06T09:12:58.527Z,1406.25
2022-09-06T09:13:58.602Z,1428.75
2022-09-06T09:14:58.633Z,1423.13
2022-09-06T09:15:58.765Z,1440.00
2022-09-06T09:16:58.749Z,1350.00
2022-09-06T09:17:58.808Z,1428.75
2022-09-06T09:18:58.867Z,1462.50
2022-09-06T09:19:58.936Z,1462.50
2022-09-06T09:20:59.004Z,1468.13
2022-09-06T09:21:59.033Z,1473.75
2022-09-06T09:22:59.095Z,1485.00
2022-09-06T09:23:59.151Z,1479.38
2022-09-06T09:24:59.220Z,1479.38
2022-09-06T09:25:59.312Z,1254.38
2022-09-06T09:26:59.321Z,1417.50
2022-09-06T09:27:59.381Z,1378.13
2022-09-06T09:28:59.438Z,1254.38
2022-09-06T09:30:59.669Z,888.75
2022-09-06T09:31:59.669Z,787.50
2022-09-06T09:32:59.689Z,765.00
2022-09-06T09:33:59.752Z,703.13
2022-09-06T09:34:59.787Z,680.63
2022-09-06T09:35:59.859Z,663.75
2022-09-06T09:38:04.938Z,624.38
2022-09-06T09:39:00.091Z,613.13
2022-09-06T09:40:00.256Z,562.50
2022-09-06T09:41:00.315Z,585.00
2022-09-06T09:42:00.213Z,630.00
2022-09-06T09:43:00.256Z,618.75
2022-09-06T09:44:04.460Z,573.75
2022-09-06T09:45:00.500Z,511.88
2022-09-06T09:46:00.478Z,495.00
2022-09-06T09:47:00.561Z,466.88
2022-09-06T09:48:00.543Z,455.63
2022-09-06T09:49:00.590Z,455.63
2022-09-06T09:50:00.685Z,511.88
2022-09-06T09:51:00.834Z,461.25
2022-09-06T09:52:00.820Z,461.25
2022-09-06T09:53:00.889Z,489.38
2022-09-06T09:54:01.030Z,466.88
2022-09-06T09:55:01.050Z,466.88
2022-09-06T09:56:01.169Z,466.88
2022-09-06T09:57:01.156Z,438.75
2022-09-06T09:58:01.096Z,427.50
2022-09-06T09:59:01.154Z,410.63
2022-09-06T10:00:01.267Z,399.38
2022-09-06T10:01:01.438Z,376.88
2022-09-06T10:02:01.358Z,360.00
2022-09-06T10:03:01.479Z,348.75
2022-09-06T10:05:01.543Z,343.13
2022-09-06T10:06:02.800Z,343.13
2022-09-06T10:07:09.147Z,315.00
2022-09-06T10:08:01.771Z,298.13
2022-09-06T10:09:01.835Z,286.88
2022-09-06T10:10:01.765Z,281.25
2022-09-06T10:11:01.866Z,270.00
2022-09-06T10:12:01.976Z,264.38
2022-09-06T10:13:01.975Z,253.13
2022-09-06T10:14:02.034Z,247.50
2022-09-06T10:15:03.621Z,241.88
2022-09-06T10:16:02.159Z,241.88
2022-09-06T10:17:02.190Z,236.25
2022-09-06T10:18:02.254Z,236.25
2022-09-06T10:19:02.379Z,241.88
2022-09-06T10:20:02.439Z,241.88
2022-09-06T10:21:02.400Z,247.50
2022-09-06T10:22:02.476Z,253.13
2022-09-06T10:23:02.515Z,258.75
2022-09-06T10:25:02.664Z,258.75
2022-09-06T10:26:02.752Z,264.38
2022-09-06T10:27:02.776Z,258.75
2022-09-06T10:28:10.834Z,258.75
2022-09-06T10:29:02.802Z,253.13
2022-09-06T10:30:02.872Z,247.50
2022-09-06T10:31:02.949Z,241.88
2022-09-06T10:32:02.967Z,236.25
2022-09-06T10:33:03.055Z,236.25
2022-09-06T10:34:03.076Z,236.25
2022-09-06T10:35:03.135Z,236.25
2022-09-06T10:36:03.193Z,241.88
2022-09-06T10:37:03.240Z,253.13
2022-09-06T10:38:03.323Z,258.75
2022-09-06T10:39:04.248Z,264.38
2022-09-06T10:40:03.449Z,264.38
2022-09-06T10:41:03.457Z,264.38
2022-09-06T10:42:03.513Z,258.75
2022-09-06T10:43:03.601Z,253.13
2022-09-06T10:44:03.626Z,286.88
2022-09-06T10:45:03.697Z,281.25
2022-09-06T10:46:03.800Z,275.63
2022-09-06T10:47:03.789Z,230.63
2022-09-06T10:48:03.849Z,219.38
2022-09-06T10:49:03.899Z,213.75
2022-09-06T10:50:04.025Z,208.13
2022-09-06T10:51:04.013Z,208.13
2022-09-06T10:52:04.081Z,225.00
2022-09-06T10:53:04.124Z,230.63
2022-09-06T10:54:04.170Z,236.25
2022-09-06T10:55:04.253Z,230.63
2022-09-06T10:56:04.301Z,225.00
2022-09-06T10:57:04.477Z,196.88
2022-09-06T10:58:20.357Z,196.88
2022-09-06T11:00:04.516Z,191.25
2022-09-06T11:01:04.562Z,191.25
2022-09-06T11:02:04.710Z,185.63
2022-09-06T11:04:08.038Z,185.63
2022-09-06T11:06:04.830Z,202.50
2022-09-06T11:07:04.885Z,213.75
2022-09-06T11:09:05.014Z,230.63
2022-09-06T11:10:05.182Z,241.88
2022-09-06T11:11:05.143Z,253.13
2022-09-06T11:12:05.195Z,264.38
2022-09-06T11:13:05.271Z,281.25
2022-09-06T11:14:05.840Z,292.50
2022-09-06T11:15:05.423Z,303.75
2022-09-06T11:16:05.462Z,315.00
2022-09-06T11:17:05.476Z,331.88
2022-09-06T11:18:05.534Z,337.50
2022-09-06T11:19:05.656Z,337.50
2022-09-06T11:20:05.621Z,337.50
2022-09-06T11:21:05.683Z,343.13
2022-09-06T11:22:05.721Z,343.13
2022-09-06T11:23:05.809Z,360.00
2022-09-06T11:24:05.869Z,388.13
2022-09-06T11:25:05.895Z,416.25
2022-09-06T11:26:05.922Z,438.75
2022-09-06T11:27:06.020Z,472.50
2022-09-06T11:28:06.062Z,517.50
2022-09-06T11:29:06.092Z,556.88
2022-09-06T11:30:06.182Z,697.50
2022-09-06T11:31:06.231Z,748.13
2022-09-06T11:32:21.588Z,646.88
2022-09-06T11:33:06.310Z,579.38
2022-09-06T11:34:06.389Z,590.63
2022-09-06T11:35:06.430Z,641.25
2022-09-06T11:36:06.486Z,607.50
2022-09-06T11:37:06.581Z,607.50
2022-09-06T11:38:06.588Z,573.75
2022-09-06T11:39:06.639Z,556.88
2022-09-06T11:41:08.151Z,601.88
2022-09-06T11:42:06.830Z,646.88
2022-09-06T11:43:06.858Z,652.50
2022-09-06T11:44:06.912Z,635.63
2022-09-06T11:45:06.968Z,601.88
2022-09-06T11:46:07.093Z,562.50
2022-09-06T11:47:07.082Z,528.75
2022-09-06T11:48:07.139Z,523.13
2022-09-06T11:49:07.198Z,551.25
2022-09-06T11:50:07.317Z,646.88
2022-09-06T11:51:07.334Z,1001.25
2022-09-06T11:52:07.369Z,900.00
2022-09-06T11:53:07.424Z,1035.00
2022-09-06T11:54:07.478Z,703.13
2022-09-06T11:55:07.540Z,680.63
2022-09-06T11:56:07.614Z,793.13
2022-09-06T11:57:07.656Z,793.13
2022-09-06T11:58:07.706Z,939.38
2022-09-06T11:59:07.761Z,697.50
2022-09-06T12:00:07.819Z,641.25
2022-09-06T12:01:07.925Z,601.88
2022-09-06T12:02:07.929Z,590.63
2022-09-06T12:04:09.119Z,573.75
2022-09-06T12:05:08.107Z,618.75
2022-09-06T12:06:08.188Z,568.13
2022-09-06T12:07:08.228Z,523.13
2022-09-06T12:08:08.290Z,540.00
2022-09-06T12:09:08.343Z,551.25
2022-09-06T12:10:08.392Z,461.25
2022-09-06T12:11:08.479Z,444.38
2022-09-06T12:12:08.511Z,416.25
2022-09-06T12:13:08.567Z,388.13
2022-09-06T12:14:08.618Z,360.00
2022-09-06T12:15:08.679Z,343.13
2022-09-06T12:16:08.783Z,320.63
2022-09-06T12:17:08.833Z,309.38
2022-09-06T12:18:08.849Z,303.75
2022-09-06T12:19:08.947Z,303.75
2022-09-06T12:20:08.969Z,309.38
2022-09-06T12:21:09.016Z,303.75
2022-09-06T12:22:09.086Z,303.75
2022-09-06T12:23:09.162Z,298.13
2022-09-06T12:24:09.190Z,298.13
2022-09-06T12:25:09.244Z,292.50
2022-09-06T12:26:09.302Z,286.88
2022-09-06T12:27:09.393Z,286.88
2022-09-06T12:28:09.417Z,281.25
2022-09-06T12:29:09.471Z,275.63
2022-09-06T12:30:09.577Z,270.00
2022-09-06T12:31:18.014Z,270.00
2022-09-06T12:32:09.636Z,270.00
2022-09-06T12:33:09.715Z,264.38
2022-09-06T12:34:09.768Z,270.00
2022-09-06T12:36:09.890Z,258.75
2022-09-06T12:37:30.978Z,258.75
2022-09-06T12:38:09.979Z,258.75
2022-09-06T12:39:10.048Z,264.38
2022-09-06T12:40:10.261Z,270.00
2022-09-06T12:41:10.139Z,275.63
2022-09-06T12:42:10.227Z,275.63
2022-09-06T12:43:10.250Z,281.25
2022-09-06T12:44:10.317Z,281.25
2022-09-06T12:45:10.367Z,281.25
2022-09-06T12:46:10.491Z,286.88
2022-09-06T12:47:10.469Z,292.50
2022-09-06T12:48:10.537Z,303.75
2022-09-06T12:49:10.581Z,309.38
2022-09-06T12:50:10.652Z,315.00
2022-09-06T12:51:10.719Z,320.63
2022-09-06T12:52:10.760Z,326.25
2022-09-06T12:53:13.548Z,326.25
2022-09-06T12:54:10.854Z,331.88
2022-09-06T12:55:10.913Z,331.88
2022-09-06T12:56:11.002Z,331.88
2022-09-06T12:57:11.043Z,337.50
2022-09-06T12:58:11.084Z,337.50
2022-09-06T12:59:11.141Z,331.88
2022-09-06T13:00:11.216Z,331.88
2022-09-06T13:01:11.282Z,331.88
2022-09-06T13:02:11.453Z,326.25
2022-09-06T13:03:11.365Z,320.63
2022-09-06T13:04:11.454Z,315.00
2022-09-06T13:05:11.470Z,303.75
2022-09-06T13:06:11.520Z,298.13
2022-09-06T13:07:11.609Z,286.88
2022-09-06T13:08:11.629Z,286.88
2022-09-06T13:09:11.689Z,275.63
2022-09-06T13:10:11.745Z,270.00
2022-09-06T13:11:11.798Z,258.75
2022-09-06T13:12:11.878Z,253.13
2022-09-06T13:13:11.902Z,241.88
2022-09-06T13:14:14.255Z,230.63
2022-09-06T13:15:12.014Z,230.63
2022-09-06T13:16:12.163Z,219.38
2022-09-06T13:17:12.133Z,208.13
2022-09-06T13:18:12.186Z,196.88
2022-09-06T13:19:12.264Z,191.25
2022-09-06T13:20:12.292Z,180.00
2022-09-06T13:21:12.345Z,174.38
2022-09-06T13:22:12.405Z,174.38
2022-09-06T13:23:12.457Z,168.75
2022-09-06T13:24:12.540Z,163.13
2022-09-06T13:25:12.571Z,163.13
2022-09-06T13:26:12.617Z,157.50
2022-09-06T13:27:12.682Z,151.88
2022-09-06T13:28:12.730Z,151.88
2022-09-06T13:29:12.810Z,146.25
2022-09-06T13:30:12.851Z,146.25
2022-09-06T13:31:12.958Z,146.25
2022-09-06T13:32:12.950Z,140.63
2022-09-06T13:33:13.029Z,140.63
2022-09-06T13:34:13.079Z,140.63
2022-09-06T13:35:13.115Z,135.00
2022-09-06T13:36:13.174Z,135.00
2022-09-06T13:37:13.234Z,135.00
2022-09-06T13:38:13.302Z,129.38
2022-09-06T13:39:13.344Z,129.38
2022-09-06T13:40:13.446Z,123.75
2022-09-06T13:41:16.309Z,123.75
2022-09-06T13:42:14.149Z,123.75
2022-09-06T13:43:14.434Z,123.75
2022-09-06T13:44:13.609Z,118.13
2022-09-06T13:45:13.657Z,123.75
2022-09-06T13:46:13.814Z,123.75
2022-09-06T13:47:13.770Z,123.75
2022-09-06T13:48:28.842Z,123.75
2022-09-06T13:49:13.897Z,118.13
2022-09-06T13:50:13.933Z,118.13
2022-09-06T13:51:13.987Z,118.13
2022-09-06T13:52:14.092Z,112.50
2022-09-06T13:53:14.096Z,112.50
2022-09-06T13:54:14.158Z,106.88
2022-09-06T13:55:14.205Z,106.88
2022-09-06T13:56:14.255Z,101.25
2022-09-06T13:57:14.371Z,101.25
2022-09-06T13:58:14.398Z,101.25
2022-09-06T13:59:14.429Z,101.25
2022-09-06T14:00:14.481Z,95.63
2022-09-06T14:01:14.651Z,95.63
2022-09-06T14:02:14.625Z,95.63
2022-09-06T14:03:14.649Z,95.63
2022-09-06T14:04:14.697Z,95.63
2022-09-06T14:05:14.807Z,101.25
2022-09-06T14:06:14.795Z,101.25
2022-09-06T14:07:14.857Z,101.25
2022-09-06T14:08:14.916Z,106.88
2022-09-06T14:09:14.998Z,106.88
2022-09-06T14:10:15.024Z,112.50
2022-09-06T14:11:15.066Z,118.13
